Time;durP1;ratioP1;P1;durP2;ratioP2;P2;SDS_P1;SDS_P2;PMS_P1;PMS_P2;Temp;Humidity;BMP_temperature;BMP_pressure;BME280_temperature;BME280_humidity;BME280_pressure;Samples;Min_cycle;Max_cycle;Signal;HPM_P1;HPM_P2
2021/12/27 00:01:13;;;;;;;11.55;6.97;;;;;;;-3.64;92.87;99606.52;1810907;77;20954;-62
2021/12/27 00:03:41;;;;;;;10.18;6.47;;;;;;;-3.64;92.94;99613.29;1816879;77;20924;-61
2021/12/27 00:06:09;;;;;;;12.18;7.03;;;;;;;-3.59;93.08;99611.64;1808485;77;20952;-61
2021/12/27 00:08:40;;;;;;;13.08;6.75;;;;;;;-3.57;93.02;99615.06;1816220;77;21202;-61
2021/12/27 00:11:11;;;;;;;14.90;8.88;;;;;;;-3.56;93.02;99614.20;1806400;77;20978;-61
2021/12/27 00:13:38;;;;;;;16.32;7.12;;;;;;;-3.58;92.94;99608.27;1811519;77;20894;-61
2021/12/27 00:16:06;;;;;;;13.90;7.85;;;;;;;-3.56;92.95;99608.25;1794159;77;20982;-61
2021/12/27 00:18:33;;;;;;;12.20;7.65;;;;;;;-3.59;92.83;99610.36;1797107;77;20926;-61
2021/12/27 00:21:01;;;;;;;12.30;7.42;;;;;;;-3.57;92.96;99608.68;1768236;80;21060;-61
2021/12/27 00:23:28;;;;;;;11.22;7.15;;;;;;;-3.57;92.98;99612.52;1753499;79;24245;-61
2021/12/27 00:25:55;;;;;;;;;;;;;;;-3.52;93.14;99607.45;1817469;77;20956;-61
2021/12/27 00:28:22;;;;;;;14.23;7.53;;;;;;;-3.47;93.24;99606.64;1736688;80;20116;-62
2021/12/27 00:30:49;;;;;;;12.65;6.90;;;;;;;-3.42;93.35;99604.98;1795963;77;20944;-61
2021/12/27 00:33:16;;;;;;;11.83;7.28;;;;;;;-3.38;93.37;99611.81;1807284;77;21142;-61
2021/12/27 00:35:43;;;;;;;14.93;6.67;;;;;;;-3.35;93.43;99608.85;1804328;77;20959;-61
2021/12/27 00:38:10;;;;;;;12.37;7.95;;;;;;;-3.30;93.46;99607.19;1799969;77;20985;-62
2021/12/27 00:40:36;;;;;;;13.03;8.00;;;;;;;-3.28;93.32;99609.31;1803161;77;20954;-62
2021/12/27 00:43:03;;;;;;;11.50;7.67;;;;;;;-3.26;93.30;99612.73;1808693;77;20893;-61
2021/12/27 00:45:30;;;;;;;17.00;8.33;;;;;;;-3.24;93.33;99603.39;1767990;79;21180;-61
2021/12/27 00:47:57;;;;;;;14.63;7.60;;;;;;;-3.22;93.30;99613.17;1738506;80;20951;-61
2021/12/27 00:50:24;;;;;;;12.68;6.83;;;;;;;-3.19;93.35;99613.22;1740844;80;20935;-61
2021/12/27 00:52:53;;;;;;;12.70;6.28;;;;;;;-3.17;93.37;99610.23;1769356;79;20907;-62
2021/12/27 00:55:20;;;;;;;10.82;6.47;;;;;;;-3.13;93.44;99614.53;1759054;79;21016;-61
2021/12/27 00:57:47;;;;;;;10.63;5.83;;;;;;;-3.07;93.68;99606.91;1772018;79;21096;-61
2021/12/27 01:00:18;;;;;;;10.72;6.17;;;;;;;-3.01;93.63;99619.70;1726661;80;20927;-61
2021/12/27 01:02:46;;;;;;;10.65;5.72;;;;;;;-2.97;93.60;99620.56;1805213;77;20894;-62
2021/12/27 01:05:13;;;;;;;10.95;5.72;;;;;;;-2.96;93.56;99611.65;1808952;77;20890;-61
2021/12/27 01:07:41;;;;;;;9.85;6.40;;;;;;;-2.93;93.63;99610.39;1817356;77;21521;-61
2021/12/27 01:13:02;;;;;;;9.65;5.40;;;;;;;-2.81;93.71;99613.84;1818184;77;20909;-61
2021/12/27 01:17:49;;;;;;;8.40;5.33;;;;;;;-2.72;93.89;99619.00;1813941;77;20990;-61
2021/12/27 01:20:21;;;;;;;9.15;5.25;;;;;;;-2.67;93.92;99626.27;1812941;77;21006;-61
2021/12/27 01:22:48;;;;;;;13.62;5.22;;;;;;;-2.69;93.73;99620.28;1803389;77;21911;-61
2021/12/27 01:25:15;;;;;;;8.63;4.42;;;;;;;-2.71;93.50;99615.61;1795679;77;20906;-62
2021/12/27 01:27:44;;;;;;;12.30;5.92;;;;;;;-2.70;93.51;99617.31;1799866;77;21373;-61
2021/12/27 01:30:21;;;;;;;6.95;4.78;;;;;;;-2.66;93.70;99616.49;1804451;77;20870;-61
2021/12/27 01:32:53;;;;;;;11.50;5.37;;;;;;;-2.61;93.78;99616.06;1804373;77;21567;-61
2021/12/27 01:35:21;;;;;;;12.03;6.33;;;;;;;-2.62;93.67;99615.64;1800969;77;47862;-61
2021/12/27 01:37:50;;;;;;;9.68;6.15;;;;;;;-2.63;93.64;99616.50;1798294;77;21464;-61
2021/12/27 01:40:21;;;;;;;7.05;4.58;;;;;;;-2.60;93.73;99616.52;1815666;77;20923;-61
2021/12/27 01:43:12;;;;;;;10.70;5.37;;;;;;;-2.56;93.76;99614.38;1814561;77;20965;-61
2021/12/27 01:45:44;;;;;;;8.73;4.90;;;;;;;-2.60;93.47;99613.95;1805576;77;20923;-61
2021/12/27 01:48:12;;;;;;;8.48;5.42;;;;;;;-2.68;93.22;99618.18;1814443;77;21078;-61
2021/12/27 01:50:42;;;;;;;10.43;5.25;;;;;;;-2.73;93.18;99618.14;1810592;77;20934;-61
2021/12/27 01:53:10;;;;;;;10.10;5.37;;;;;;;-2.75;93.20;99620.27;1817398;77;20911;-61
2021/12/27 01:55:38;;;;;;;10.65;5.40;;;;;;;-2.78;93.30;99618.97;1795963;78;21607;-61
2021/12/27 01:58:04;;;;;;;;;;;;;;;-2.80;93.35;99620.66;1807905;77;21025;-62
2021/12/27 02:00:32;;;;;;;11.35;6.25;;;;;;;-2.88;93.16;99618.09;1808820;77;21894;-61
2021/12/27 02:02:58;;;;;;;;;;;;;;;-2.90;93.22;99616.36;1800478;77;20929;-61
2021/12/27 02:05:25;;;;;;;11.87;5.90;;;;;;;-2.89;93.36;99618.06;1812662;77;20111;-61
2021/12/27 02:07:52;;;;;;;10.13;5.58;;;;;;;-2.90;93.37;99616.36;1813606;77;20915;-61
2021/12/27 02:10:19;;;;;;;12.27;6.80;;;;;;;-2.92;93.28;99627.41;1812215;77;20930;-62
2021/12/27 02:12:45;;;;;;;10.17;6.27;;;;;;;-2.98;93.11;99627.38;1806433;77;21051;-61
2021/12/27 02:15:13;;;;;;;11.53;7.50;;;;;;;-2.99;93.19;99625.69;1803370;77;20924;-61
2021/12/27 02:17:43;;;;;;;12.58;7.20;;;;;;;-3.05;92.98;99629.48;1803492;77;20964;-61
2021/12/27 02:20:29;;;;;;;12.55;7.22;;;;;;;-3.06;93.11;99618.81;1757998;80;21079;-62
2021/12/27 02:23:02;;;;;;;13.30;7.37;;;;;;;-3.06;93.21;99614.98;1773204;79;20948;-61
2021/12/27 02:25:32;;;;;;;13.70;6.92;;;;;;;-3.05;93.27;99612.88;1782568;77;21249;-61
2021/12/27 02:28:01;;;;;;;11.03;6.75;;;;;;;-3.10;93.10;99619.66;1800452;77;20879;-61
2021/12/27 02:30:30;;;;;;;12.43;6.92;;;;;;;-3.14;93.06;99624.30;1811764;77;21448;-62
2021/12/27 02:33:03;;;;;;;10.95;7.25;;;;;;;-3.17;93.00;99612.79;1807627;77;20901;-61
2021/12/27 02:35:37;;;;;;;12.53;6.65;;;;;;;-3.25;92.76;99605.50;1799217;77;20974;-61
2021/12/27 02:38:07;;;;;;;13.18;7.65;;;;;;;-3.32;92.63;99607.59;1800018;77;21588;-61
2021/12/27 02:40:38;;;;;;;13.78;7.58;;;;;;;-3.37;92.75;99600.73;1788839;78;20946;-61
2021/12/27 02:43:12;;;;;;;12.18;7.47;;;;;;;-3.32;93.07;99602.48;1805245;77;21486;-61
2021/12/27 02:45:44;;;;;;;11.78;7.25;;;;;;;-3.30;93.13;99599.53;1803967;77;20928;-62
2021/12/27 02:48:14;;;;;;;9.55;6.97;;;;;;;-3.37;92.88;99594.78;1800283;77;21506;-62
2021/12/27 02:50:43;;;;;;;14.98;7.90;;;;;;;-3.44;92.79;99596.45;1813009;77;21900;-61
2021/12/27 02:53:11;;;;;;;9.98;7.42;;;;;;;-3.53;92.72;99598.91;1811102;77;21084;-61
2021/12/27 02:55:39;;;;;;;9.20;6.50;;;;;;;-3.54;92.88;99609.98;1813822;77;20956;-61
2021/12/27 02:58:06;;;;;;;9.45;6.87;;;;;;;-3.55;92.78;99602.33;1802520;77;20907;-61
2021/12/27 03:00:38;;;;;;;10.48;6.62;;;;;;;-3.63;92.57;99602.26;1806995;77;20907;-61
2021/12/27 03:03:05;;;;;;;8.65;5.58;;;;;;;-3.71;92.42;99601.34;1806053;77;21493;-62
2021/12/27 03:05:32;;;;;;;9.00;6.40;;;;;;;-3.82;92.38;99591.88;1802823;78;20895;-61
2021/12/27 03:08:00;;;;;;;9.53;5.90;;;;;;;-3.89;92.29;99592.69;1806803;77;21474;-61
2021/12/27 03:10:33;;;;;;;8.13;6.53;;;;;;;-3.96;92.29;99593.47;1735701;79;20993;-61
2021/12/27 03:13:03;;;;;;;8.93;5.97;;;;;;;-4.03;92.21;99583.19;1762759;79;21021;-61
2021/12/27 03:15:32;;;;;;;9.93;5.83;;;;;;;-4.11;92.20;99584.41;1754279;80;21459;-61
2021/12/27 03:17:59;;;;;;;8.53;6.22;;;;;;;-4.18;92.17;99589.00;1752535;79;21025;-61
2021/12/27 03:20:27;;;;;;;8.95;5.65;;;;;;;-4.23;92.20;99590.64;1779314;78;22991;-62
2021/12/27 03:22:54;;;;;;;8.55;5.58;;;;;;;-4.30;92.17;99593.13;1801501;77;20966;-61
2021/12/27 03:25:25;;;;;;;8.73;5.67;;;;;;;-4.35;92.26;99594.77;1803582;77;20858;-61
2021/12/27 03:27:53;;;;;;;9.13;6.05;;;;;;;-4.35;92.46;99589.67;1790158;78;21130;-62
2021/12/27 03:30:26;;;;;;;6.87;4.83;;;;;;;-4.39;92.30;99584.13;1806544;77;20947;-61
2021/12/27 03:32:53;;;;;;;6.90;5.25;;;;;;;-4.43;92.14;99586.19;1815352;77;20851;-61
2021/12/27 03:35:25;;;;;;;10.75;6.37;;;;;;;-4.48;92.05;99590.41;1804955;77;21485;-61
2021/12/27 03:37:58;;;;;;;6.70;5.42;;;;;;;-4.53;91.94;99589.49;1813574;77;21032;-61
2021/12/27 03:40:27;;;;;;;9.68;6.97;;;;;;;-4.58;91.88;99593.67;1803447;77;21083;-61
2021/12/27 03:42:55;;;;;;;12.93;7.35;;;;;;;-4.63;91.97;99588.94;1773266;78;20931;-61
2021/12/27 03:45:30;;;;;;;11.33;6.85;;;;;;;-4.68;91.98;99595.24;1782872;78;21365;-61
2021/12/27 03:47:58;;;;;;;12.82;7.58;;;;;;;-4.73;91.99;99592.66;1772621;77;21543;-61
2021/12/27 03:50:25;;;;;;;;;;;;;;;-4.79;91.94;99587.49;1820194;77;20930;-61
2021/12/27 03:52:54;;;;;;;9.18;6.28;;;;;;;-4.83;92.13;99587.42;1817774;77;21771;-61
2021/12/27 03:55:22;;;;;;;10.90;6.85;;;;;;;-4.88;92.06;99592.45;1800918;77;21601;-61
2021/12/27 03:57:53;;;;;;;8.33;6.03;;;;;;;-4.95;92.07;99595.34;1807735;77;21453;-61
2021/12/27 04:00:32;;;;;;;8.60;5.75;;;;;;;-4.96;92.09;99599.13;1796803;77;20938;-61
2021/12/27 04:02:59;;;;;;;8.85;5.50;;;;;;;-5.02;91.91;99605.42;1797362;77;20984;-61
2021/12/27 04:05:28;;;;;;;10.60;5.17;;;;;;;-5.11;91.75;99604.03;1788543;77;21183;-61
2021/12/27 04:08:00;;;;;;;7.00;4.78;;;;;;;-5.19;91.66;99609.86;1765594;80;21494;-61
2021/12/27 04:10:24;;;;;;;8.50;5.12;;;;;;;-5.26;91.70;99605.95;1745035;80;20957;-61
2021/12/27 04:12:50;;;;;;;6.80;4.17;;;;;;;-5.31;91.65;99613.51;1750788;79;21003;-61
2021/12/27 04:15:17;;;;;;;6.85;5.62;;;;;;;-5.39;91.58;99612.54;1809856;77;21005;-61
2021/12/27 04:17:45;;;;;;;7.37;4.95;;;;;;;-5.48;91.52;99621.31;1783353;77;21826;-61
2021/12/27 04:20:11;;;;;;;;;;;;;;;-5.56;91.47;99613.97;1783249;78;20934;-61
2021/12/27 04:22:38;;;;;;;6.57;5.17;;;;;;;-5.63;91.44;99614.27;1805457;77;20090;-61
2021/12/27 04:25:05;;;;;;;7.37;5.33;;;;;;;-5.68;91.50;99624.39;1788543;77;20947;-61
2021/12/27 04:27:32;;;;;;;8.13;5.53;;;;;;;-5.74;91.40;99619.21;1808928;77;20901;-61
2021/12/27 04:29:58;;;;;;;11.78;6.25;;;;;;;-5.82;91.32;99613.14;1811447;77;21161;-61
2021/12/27 04:32:25;;;;;;;7.25;4.90;;;;;;;-5.88;91.35;99605.37;1814685;77;20888;-61
2021/12/27 04:34:52;;;;;;;9.90;5.73;;;;;;;-5.92;91.44;99620.16;1756175;80;20898;-61
2021/12/27 04:37:19;;;;;;;9.80;6.30;;;;;;;-5.97;91.45;99620.52;1771889;79;20917;-61
2021/12/27 04:39:46;;;;;;;10.53;6.17;;;;;;;-6.04;91.52;99618.72;1742770;80;20875;-61
2021/12/27 04:42:12;;;;;;;12.90;8.00;;;;;;;-6.09;91.50;99611.84;1806079;77;21035;-61
2021/12/27 04:44:39;;;;;;;14.80;8.25;;;;;;;-6.17;91.41;99613.81;1803193;77;21057;-61
2021/12/27 04:47:07;;;;;;;17.50;8.63;;;;;;;-6.25;91.36;99612.39;1805857;77;20989;-61
2021/12/27 04:49:35;;;;;;;23.38;10.20;;;;;;;-6.33;91.31;99606.31;1812650;77;20930;-61
2021/12/27 04:52:02;;;;;;;21.60;10.32;;;;;;;-6.38;91.42;99613.02;1797922;77;21454;-61
2021/12/27 04:54:29;;;;;;;17.57;9.25;;;;;;;-6.43;91.37;99618.00;1803699;77;21070;-61
2021/12/27 04:56:57;;;;;;;22.82;11.43;;;;;;;-6.47;91.40;99612.81;1784543;77;20914;-61
2021/12/27 04:59:23;;;;;;;;;;;;;;;-6.53;91.34;99615.67;1811463;77;20932;-61
2021/12/27 05:01:50;;;;;;;25.35;12.98;;;;;;;-6.62;91.25;99616.77;1806250;77;20494;-61
2021/12/27 05:04:17;;;;;;;19.80;10.67;;;;;;;-6.70;91.27;99613.22;1746926;77;20934;-61
2021/12/27 05:06:44;;;;;;;27.30;14.65;;;;;;;-6.77;91.29;99608.86;1804619;77;22545;-61
2021/12/27 05:09:11;;;;;;;29.87;16.55;;;;;;;-6.88;91.28;99607.78;1810528;77;21497;-61
2021/12/27 05:11:39;;;;;;;33.20;18.23;;;;;;;-6.94;91.40;99606.39;1806141;77;21044;-61
2021/12/27 05:14:06;;;;;;;33.92;17.62;;;;;;;-7.01;91.42;99599.89;1824323;77;21486;-61
2021/12/27 05:16:33;;;;;;;30.82;17.15;;;;;;;-7.06;91.42;99608.23;1792394;77;20879;-61
2021/12/27 05:19:00;;;;;;;31.35;15.93;;;;;;;-7.15;91.29;99601.28;1794913;77;24262;-61
2021/12/27 05:21:27;;;;;;;44.73;23.92;;;;;;;-7.26;91.19;99604.84;1790519;77;20983;-61
2021/12/27 05:23:53;;;;;;;43.83;23.77;;;;;;;-7.36;91.08;99608.44;1802832;77;20934;-61
2021/12/27 05:26:20;;;;;;;58.08;28.30;;;;;;;-7.49;91.03;99599.26;1803024;77;20962;-61
2021/12/27 05:28:47;;;;;;;57.33;29.00;;;;;;;-7.58;91.01;99602.86;1767317;79;20935;-61
2021/12/27 05:31:15;;;;;;;56.58;26.05;;;;;;;-7.67;91.01;99598.84;1815008;77;21089;-61
2021/12/27 05:33:43;;;;;;;43.17;22.37;;;;;;;-7.76;90.99;99601.14;1814308;77;20892;-61
2021/12/27 05:36:12;;;;;;;34.92;18.50;;;;;;;-7.85;90.87;99602.19;1784745;79;20868;-61
2021/12/27 05:38:39;;;;;;;38.80;19.37;;;;;;;-7.96;90.75;99600.23;1777732;79;20930;-61
2021/12/27 05:41:06;;;;;;;45.43;22.22;;;;;;;-8.08;90.66;99599.94;1778229;77;21475;-61
2021/12/27 05:43:33;;;;;;;79.60;39.78;;;;;;;-8.21;90.66;99593.69;1811221;77;21983;-61
2021/12/27 05:46:00;;;;;;;85.45;41.18;;;;;;;-8.28;90.79;99588.45;1792015;77;20899;-61
2021/12/27 05:48:27;;;;;;;42.10;23.73;;;;;;;-8.31;90.96;99595.97;1803252;77;27037;-61
2021/12/27 05:50:54;;;;;;;26.57;14.20;;;;;;;-8.35;91.03;99587.00;1806367;77;20863;-61
2021/12/27 05:53:20;;;;;;;22.45;12.33;;;;;;;-8.43;91.02;99589.80;1818234;77;20930;-61
2021/12/27 05:55:48;;;;;;;15.70;9.78;;;;;;;-8.56;90.85;99587.33;1794343;77;21081;-61
2021/12/27 05:58:15;;;;;;;15.13;8.68;;;;;;;-8.71;90.65;99584.78;1817918;77;28659;-61
2021/12/27 06:00:41;;;;;;;14.28;8.23;;;;;;;-8.85;90.65;99587.81;1797410;77;21476;-61
2021/12/27 06:03:09;;;;;;;15.68;9.23;;;;;;;-8.94;90.73;99590.06;1805065;77;21407;-61
2021/12/27 06:05:35;;;;;;;;;;;;;;;-9.04;90.73;99590.63;1733631;80;21119;-61
2021/12/27 06:08:05;;;;;;;10.90;6.45;;;;;;;-9.11;90.67;99595.89;1760106;80;21072;-61
2021/12/27 06:10:32;;;;;;;15.35;8.35;;;;;;;-9.19;90.54;99592.69;1755670;79;20919;-63
2021/12/27 06:12:59;;;;;;;16.23;8.95;;;;;;;-9.29;90.50;99596.63;1735136;80;20908;-60
2021/12/27 06:15:26;;;;;;;12.75;8.20;;;;;;;-9.35;90.49;99602.36;1727684;80;22165;-60
2021/12/27 06:17:53;;;;;;;14.53;9.58;;;;;;;-9.43;90.35;99606.33;1735077;80;20965;-62
2021/12/27 06:20:20;;;;;;;30.82;17.12;;;;;;;-9.51;90.25;99609.02;1730351;81;21086;-62
2021/12/27 06:22:50;;;;;;;;;;;;;;;-9.61;90.18;99608.27;1727655;81;20983;-60
2021/12/27 06:25:20;;;;;;;23.30;13.30;;;;;;;-9.72;90.20;99601.23;1748880;80;20169;-61
2021/12/27 06:27:47;;;;;;;30.52;15.65;;;;;;;-9.78;90.32;99603.53;1735394;80;21019;-62
2021/12/27 06:30:16;;;;;;;22.77;12.70;;;;;;;-9.84;90.37;99615.97;1738907;80;21031;-62
2021/12/27 06:32:48;;;;;;;27.42;14.07;;;;;;;-9.89;90.38;99614.96;1738212;80;21019;-61
2021/12/27 06:35:15;;;;;;;32.05;16.55;;;;;;;-9.96;90.34;99613.06;1738734;80;21767;-61
2021/12/27 06:37:44;;;;;;;30.72;18.70;;;;;;;-9.99;90.45;99610.44;1694838;81;21034;-62
2021/12/27 06:40:14;;;;;;;27.82;16.73;;;;;;;-10.05;90.38;99612.73;1762794;79;20958;-60
2021/12/27 06:42:41;;;;;;;25.77;14.38;;;;;;;-10.08;90.34;99622.73;1805649;77;20965;-61
2021/12/27 06:45:09;;;;;;;;;;;;;;;-10.13;90.28;99623.87;1806626;77;21069;-61
2021/12/27 06:47:36;;;;;;;25.37;12.68;;;;;;;-10.17;90.28;99619.09;1767461;78;20119;-61
2021/12/27 06:50:08;;;;;;;29.45;15.30;;;;;;;-10.20;90.35;99620.25;1804941;77;20898;-62
2021/12/27 06:52:34;;;;;;;45.85;23.45;;;;;;;-10.21;90.37;99619.81;1814850;77;20927;-61
2021/12/27 06:55:02;;;;;;;45.28;24.67;;;;;;;-10.24;90.27;99623.91;1808038;77;21466;-60
2021/12/27 06:57:30;;;;;;;59.35;30.65;;;;;;;-10.28;90.23;99625.89;1789575;77;21180;-61
2021/12/27 06:59:59;;;;;;;46.23;21.05;;;;;;;-10.28;90.31;99625.48;1806231;77;20894;-61
2021/12/27 07:02:26;;;;;;;30.75;16.20;;;;;;;-10.31;90.25;99620.73;1802745;77;21124;-61
2021/12/27 07:04:53;;;;;;;22.82;14.38;;;;;;;-10.32;90.36;99615.24;1809859;77;20916;-61
2021/12/27 07:07:20;;;;;;;32.40;18.55;;;;;;;-10.34;90.31;99617.70;1798811;77;21064;-61
2021/12/27 07:09:47;;;;;;;42.75;20.35;;;;;;;-10.36;90.37;99611.77;1801584;77;21027;-61
2021/12/27 07:12:14;;;;;;;33.42;18.80;;;;;;;-10.26;90.89;99621.31;1807202;77;20929;-61
2021/12/27 07:14:41;;;;;;;36.48;19.35;;;;;;;-10.11;91.20;99616.33;1803445;77;20987;-61
2021/12/27 07:17:08;;;;;;;41.20;19.90;;;;;;;-10.02;91.26;99612.86;1785313;77;21454;-60
2021/12/27 07:19:35;;;;;;;46.53;21.87;;;;;;;-9.91;91.35;99622.92;1796868;78;20936;-60
2021/12/27 07:22:02;;;;;;;45.58;19.87;;;;;;;-9.78;91.57;99621.22;1796008;77;21443;-61
2021/12/27 07:24:29;;;;;;;;;;;;;;;-9.64;91.68;99619.55;1817130;77;20986;-61
2021/12/27 07:26:55;;;;;;;41.27;19.17;;;;;;;-9.46;91.96;99627.31;1815478;77;20109;-61
2021/12/27 07:29:22;;;;;;;43.60;19.15;;;;;;;-9.31;91.98;99623.12;1804702;77;21673;-61
2021/12/27 07:31:49;;;;;;;37.78;16.77;;;;;;;-9.17;92.02;99626.48;1814145;77;20980;-61
2021/12/27 07:34:19;;;;;;;38.13;17.73;;;;;;;-9.10;91.91;99625.84;1788671;77;21824;-61
2021/12/27 07:36:49;;;;;;;40.05;18.42;;;;;;;-8.99;91.79;99623.62;1811557;77;20916;-61
2021/12/27 07:39:17;;;;;;;35.45;17.23;;;;;;;-8.92;91.62;99626.39;1804159;77;20922;-61
2021/12/27 07:41:46;;;;;;;39.10;18.50;;;;;;;-8.86;91.56;99622.77;1805344;77;21052;-61
2021/12/27 07:44:13;;;;;;;54.73;24.15;;;;;;;-8.77;91.52;99632.70;1805750;77;20924;-61
2021/12/27 07:46:46;;;;;;;37.78;17.87;;;;;;;-8.73;91.36;99633.26;1803109;77;21143;-61
2021/12/27 07:49:11;;;;;;;39.27;19.80;;;;;;;-8.68;91.33;99632.95;1817207;77;20946;-61
2021/12/27 07:51:40;;;;;;;43.87;21.68;;;;;;;-8.60;91.37;99631.50;1802506;77;20948;-60
2021/12/27 07:54:07;;;;;;;44.73;22.45;;;;;;;-8.51;91.37;99627.09;1798798;77;20912;-61
2021/12/27 07:56:34;;;;;;;46.40;21.77;;;;;;;-8.46;91.17;99636.95;1796720;77;26518;-61
2021/12/27 07:59:04;;;;;;;;;;;;;;;-8.42;91.10;99637.08;1802660;77;21187;-61
2021/12/27 08:01:34;;;;;;;48.15;22.87;;;;;;;-8.38;91.02;99636.30;1802693;77;20118;-61
2021/12/27 08:04:03;;;;;;;45.88;23.10;;;;;;;-8.36;91.07;99642.27;1799233;77;21005;-61
2021/12/27 08:06:31;;;;;;;46.75;22.65;;;;;;;-8.34;90.88;99641.92;1797604;77;21465;-61
2021/12/27 08:08:58;;;;;;;52.75;26.60;;;;;;;-8.30;90.80;99648.33;1717133;81;20942;-61
2021/12/27 08:11:28;;;;;;;48.98;28.05;;;;;;;-8.27;90.75;99648.41;1737853;80;21435;-61
2021/12/27 08:13:57;;;;;;;54.10;30.08;;;;;;;-8.18;90.98;99648.64;1753577;80;20954;-62
2021/12/27 08:16:24;;;;;;;42.75;23.18;;;;;;;-8.08;91.01;99643.02;1752164;79;20887;-61
2021/12/27 08:18:52;;;;;;;;;;;;;;;-8.00;91.02;99642.80;1784971;77;20907;-61
2021/12/27 08:21:21;;;;;;;44.08;19.62;;;;;;;-7.95;90.89;99645.05;1791589;78;20189;-61
2021/12/27 08:23:48;;;;;;;57.27;29.18;;;;;;;-7.92;90.73;99651.88;1787604;77;21848;-61
2021/12/27 08:26:16;;;;;;;;;;;;;;;-7.93;90.49;99648.88;1808564;77;21293;-61
2021/12/27 08:28:44;;;;;;;;;;;;;;;-7.92;90.42;99643.86;1798172;77;20159;-61
2021/12/27 08:31:11;;;;;;;43.38;19.40;;;;;;;-7.91;90.43;99650.63;1818135;77;20182;-61
2021/12/27 08:33:38;;;;;;;49.67;21.57;;;;;;;-7.84;90.53;99659.66;1818953;77;21660;-61
2021/12/27 08:36:11;;;;;;;55.17;24.20;;;;;;;-7.76;90.62;99658.17;1814138;77;21289;-61
2021/12/27 08:38:38;;;;;;;57.35;24.30;;;;;;;-7.74;90.54;99650.20;1804069;77;20900;-61
2021/12/27 08:41:05;;;;;;;52.55;24.72;;;;;;;-7.70;90.51;99660.86;1807756;77;21497;-60
2021/12/27 08:43:32;;;;;;;48.98;22.70;;;;;;;-7.69;90.33;99657.52;1810877;77;21497;-61
2021/12/27 08:45:59;;;;;;;60.10;25.32;;;;;;;-7.68;90.28;99646.55;1808151;77;20999;-61
2021/12/27 08:48:27;;;;;;;49.08;22.42;;;;;;;-7.64;90.29;99648.36;1802944;77;21590;-61
2021/12/27 08:50:55;;;;;;;47.27;22.52;;;;;;;-7.56;90.42;99648.13;1797228;78;21000;-61
2021/12/27 08:53:22;;;;;;;44.20;19.60;;;;;;;-7.49;90.49;99648.71;1802629;77;21463;-61
2021/12/27 08:55:54;;;;;;;34.90;17.92;;;;;;;-7.37;90.66;99647.28;1805299;77;20960;-61
2021/12/27 08:58:22;;;;;;;37.17;19.10;;;;;;;-7.28;90.69;99646.22;1769040;79;20986;-61
2021/12/27 09:00:55;;;;;;;41.13;19.32;;;;;;;-7.21;90.57;99645.55;1773669;79;22759;-61
2021/12/27 09:03:24;;;;;;;42.08;19.30;;;;;;;-7.13;90.60;99646.59;1806437;77;20924;-61
2021/12/27 09:05:53;;;;;;;46.63;23.47;;;;;;;-7.04;90.55;99645.52;1814989;77;20957;-61
2021/12/27 09:08:22;;;;;;;43.70;21.10;;;;;;;-6.91;90.61;99645.80;1780267;78;20978;-61
2021/12/27 09:10:53;;;;;;;36.05;18.62;;;;;;;-6.82;90.68;99639.22;1804964;77;20983;-62
2021/12/27 09:13:21;;;;;;;35.50;16.02;;;;;;;-6.74;90.53;99639.39;1803069;77;21864;-61
2021/12/27 09:15:48;;;;;;;37.42;16.60;;;;;;;-6.70;90.35;99637.34;1806053;77;25443;-61
2021/12/27 09:18:17;;;;;;;42.15;19.30;;;;;;;-6.67;90.22;99643.75;1805473;77;20935;-61
2021/12/27 09:20:47;;;;;;;45.75;17.95;;;;;;;-6.69;89.97;99636.92;1787450;77;20955;-61
2021/12/27 09:23:15;;;;;;;45.83;20.43;;;;;;;-6.68;89.89;99634.43;1807556;77;20957;-61
2021/12/27 09:25:44;;;;;;;43.05;19.10;;;;;;;-6.62;89.92;99637.09;1816725;77;21850;-61
2021/12/27 09:28:13;;;;;;;41.08;19.30;;;;;;;-6.55;89.85;99638.94;1767504;79;21454;-61
2021/12/27 09:30:44;;;;;;;46.80;22.17;;;;;;;-6.50;89.73;99627.58;1809762;77;20958;-61
2021/12/27 09:33:13;;;;;;;46.98;20.95;;;;;;;-6.47;89.66;99635.68;1810340;77;20949;-61
2021/12/27 09:35:40;;;;;;;99.62;49.25;;;;;;;-6.43;89.70;99634.93;1808866;77;20953;-61
2021/12/27 09:38:11;;;;;;;83.92;34.03;;;;;;;-6.38;89.75;99635.87;1751706;80;21767;-62
2021/12/27 09:40:40;;;;;;;156.55;61.63;;;;;;;-6.33;89.65;99629.17;1768621;79;21481;-62
2021/12/27 09:43:11;;;;;;;151.00;64.65;;;;;;;-6.27;89.70;99636.06;1731374;81;20959;-61
2021/12/27 09:45:39;;;;;;;202.57;88.40;;;;;;;-6.22;89.64;99640.40;1736092;80;20964;-61
2021/12/27 09:48:07;;;;;;;228.85;98.00;;;;;;;-6.17;89.66;99638.81;1732704;80;21000;-62
2021/12/27 09:50:43;;;;;;;227.65;95.00;;;;;;;-6.15;89.61;99637.16;1744039;80;26824;-62
2021/12/27 09:53:09;;;;;;;153.40;64.95;;;;;;;-6.11;89.60;99636.80;1738721;80;21498;-61
2021/12/27 09:55:37;;;;;;;144.07;65.40;;;;;;;-6.14;89.37;99631.23;1737706;80;21007;-62
2021/12/27 09:58:25;;;;;;;146.95;61.48;;;;;;;-6.10;89.50;99631.75;1742191;80;21432;-62
2021/12/27 10:00:53;;;;;;;120.33;55.45;;;;;;;-6.04;89.69;99631.42;1749871;80;21471;-61
2021/12/27 10:03:26;;;;;;;129.78;61.35;;;;;;;-5.96;89.71;99632.42;1738256;80;21036;-62
2021/12/27 10:06:15;;;;;;;104.63;54.20;;;;;;;-5.94;89.59;99633.28;1800957;77;20978;-62
2021/12/27 10:08:55;;;;;;;88.97;46.68;;;;;;;-5.89;89.60;99626.56;1796470;77;20963;-62
2021/12/27 10:11:23;;;;;;;63.33;31.65;;;;;;;-5.89;89.47;99620.20;1806962;77;21450;-62
2021/12/27 10:14:11;;;;;;;45.55;22.67;;;;;;;-5.88;89.43;99620.63;1750027;79;21612;-61
2021/12/27 10:17:10;;;;;;;38.38;20.50;;;;;;;-5.89;89.42;99618.94;1758530;79;21246;-61
2021/12/27 10:19:40;;;;;;;41.45;20.75;;;;;;;-5.89;89.53;99618.94;1782076;79;20952;-61
2021/12/27 10:22:18;;;;;;;39.25;18.30;;;;;;;-5.81;89.66;99617.38;1759861;79;20929;-62
2021/12/27 10:24:45;;;;;;;40.60;17.82;;;;;;;-5.81;89.41;99609.75;1726928;80;22150;-62
2021/12/27 10:27:12;;;;;;;39.80;18.73;;;;;;;-5.80;89.50;99607.64;1737904;81;20931;-62
2021/12/27 10:29:43;;;;;;;29.75;17.30;;;;;;;-5.79;89.51;99604.28;1794341;78;21170;-62
2021/12/27 10:32:20;;;;;;;25.20;13.68;;;;;;;-5.76;89.61;99599.25;1809935;77;20906;-62
2021/12/27 10:34:52;;;;;;;25.77;13.08;;;;;;;-5.74;89.49;99605.22;1802736;77;20910;-62
2021/12/27 10:37:25;;;;;;;26.55;13.80;;;;;;;-5.75;89.49;99603.91;1806475;77;20998;-62
2021/12/27 10:40:10;;;;;;;22.67;12.88;;;;;;;-5.74;89.52;99603.95;1811500;77;20986;-62
2021/12/27 10:42:50;;;;;;;24.40;12.33;;;;;;;-5.74;89.34;99598.86;1755194;80;21335;-62
2021/12/27 10:45:22;;;;;;;24.85;13.55;;;;;;;-5.73;89.39;99587.84;1734941;80;20975;-62
2021/12/27 10:47:55;;;;;;;24.47;12.40;;;;;;;-5.75;89.31;99597.13;1754020;79;21120;-61
2021/12/27 10:50:37;;;;;;;27.27;14.73;;;;;;;-5.74;89.44;99591.23;1751392;79;20911;-61
2021/12/27 10:53:09;;;;;;;24.90;13.58;;;;;;;-5.74;89.34;99586.15;1725902;80;21101;-60
2021/12/27 10:55:44;;;;;;;28.52;14.75;;;;;;;-5.70;89.51;99587.05;1812482;77;21902;-61
2021/12/27 10:58:26;;;;;;;30.72;17.17;;;;;;;-5.66;89.58;99578.23;1812867;77;20939;-61
2021/12/27 11:01:01;;;;;;;33.95;17.20;;;;;;;-5.59;89.47;99582.13;1819887;77;20867;-61
2021/12/27 11:03:42;;;;;;;44.60;21.23;;;;;;;-5.55;89.37;99577.52;1815382;77;20890;-61
2021/12/27 11:06:11;;;;;;;42.98;18.95;;;;;;;-5.53;89.36;99580.95;1758330;80;20938;-60
2021/12/27 11:08:45;;;;;;;49.03;22.37;;;;;;;-5.50;89.33;99574.63;1819601;77;21060;-61
2021/12/27 11:11:15;;;;;;;43.50;21.62;;;;;;;-5.52;89.17;99573.73;1819277;77;20852;-60
2021/12/27 11:13:44;;;;;;;47.53;23.40;;;;;;;-5.47;89.23;99572.13;1813382;77;20926;-60
2021/12/27 11:16:12;;;;;;;48.80;24.05;;;;;;;-5.43;89.27;99576.45;1803006;77;20910;-61
2021/12/27 11:18:39;;;;;;;48.90;24.12;;;;;;;-5.37;89.29;99568.89;1800765;78;20930;-61
2021/12/27 11:21:20;;;;;;;46.90;23.18;;;;;;;-5.31;89.35;99564.30;1749023;79;22002;-61
2021/12/27 11:23:52;;;;;;;50.65;23.52;;;;;;;-5.28;89.14;99569.02;1768723;78;20941;-61
2021/12/27 11:26:25;;;;;;;58.23;24.35;;;;;;;-5.29;88.93;99562.22;1728867;80;21481;-61
2021/12/27 11:29:13;;;;;;;53.40;23.40;;;;;;;-5.30;88.95;99568.13;1811539;77;20868;-61
2021/12/27 11:31:48;;;;;;;46.37;21.80;;;;;;;-5.32;88.85;99565.12;1807126;77;21543;-61
2021/12/27 11:34:19;;;;;;;55.40;26.25;;;;;;;-5.33;88.97;99570.63;1801447;77;21218;-61
2021/12/27 11:36:53;;;;;;;62.53;25.80;;;;;;;-5.32;89.00;99572.36;1809621;77;20939;-61
2021/12/27 11:39:30;;;;;;;47.13;23.85;;;;;;;-5.31;88.98;99560.48;1800950;77;20981;-60